Time;durP1;ratioP1;P1;durP2;ratioP2;P2;SDS_P1;SDS_P2;PMS_P1;PMS_P2;Temp;Humidity;BMP_temperature;BMP_pressure;BME280_temperature;BME280_humidity;BME280_pressure;Samples;Min_cycle;Max_cycle;Signal;HPM_P1;HPM_P2
2023/09/03 00:00:43;;;;;;;5.90;1.40;;;23.60;98.60;;;;;;5093502;28;20704;-68
2023/09/03 00:03:11;;;;;;;3.90;1.10;;;24.30;98.50;;;;;;5113044;28;20269;-69
2023/09/03 00:05:38;;;;;;;4.70;1.20;;;24.40;94.80;;;;;;5113740;28;20616;-68
2023/09/03 00:08:05;;;;;;;2.57;0.90;;;24.60;94.00;;;;;;5113140;28;20255;-69
2023/09/03 00:10:35;;;;;;;4.33;1.43;;;24.10;88.40;;;;;;5113340;28;20175;-69
2023/09/03 00:13:03;;;;;;;2.20;1.00;;;24.50;91.10;;;;;;5112991;28;20178;-70
2023/09/03 00:15:31;;;;;;;2.73;0.90;;;24.70;89.10;;;;;;5113648;28;20192;-69
2023/09/03 00:17:58;;;;;;;2.63;1.00;;;25.40;84.50;;;;;;5113360;28;20179;-69
2023/09/03 00:20:26;;;;;;;2.13;1.20;;;24.80;75.20;;;;;;5114171;28;20167;-69
2023/09/03 00:22:53;;;;;;;4.10;0.97;;;24.50;79.50;;;;;;5117187;28;20234;-68
2023/09/03 00:25:21;;;;;;;1.67;1.03;;;24.80;76.10;;;;;;5117123;28;20273;-69
2023/09/03 00:27:48;;;;;;;2.13;0.87;;;25.30;72.50;;;;;;5116974;28;20210;-68
2023/09/03 00:30:15;;;;;;;1.70;0.97;;;25.70;64.10;;;;;;5116878;28;20205;-68
2023/09/03 00:32:43;;;;;;;2.67;1.07;;;25.70;61.70;;;;;;5116445;28;20197;-68
2023/09/03 00:35:10;;;;;;;1.43;1.00;;;25.50;62.30;;;;;;5116939;28;20183;-68
2023/09/03 00:37:37;;;;;;;2.67;1.13;;;25.50;61.60;;;;;;5116824;28;20202;-69
2023/09/03 00:40:05;;;;;;;4.33;1.13;;;25.20;62.50;;;;;;5116526;28;20186;-69
2023/09/03 00:42:34;;;;;;;4.00;0.97;;;25.20;64.20;;;;;;5115969;28;20178;-69
2023/09/03 00:45:01;;;;;;;2.63;1.00;;;24.80;65.70;;;;;;5101943;28;20186;-68
2023/09/03 00:47:29;;;;;;;4.83;1.33;;;24.10;68.00;;;;;;5108674;28;20271;-69
2023/09/03 00:49:56;;;;;;;1.80;1.00;;;24.40;73.30;;;;;;5114770;28;20202;-68
2023/09/03 00:52:24;;;;;;;3.10;0.97;;;25.20;63.60;;;;;;5114599;28;20186;-68
2023/09/03 00:54:53;;;;;;;2.33;0.90;;;25.20;66.10;;;;;;5114312;28;20612;-69
2023/09/03 00:57:20;;;;;;;2.53;0.83;;;25.10;67.50;;;;;;5114783;28;20182;-69
2023/09/03 00:59:48;;;;;;;2.67;0.90;;;25.60;59.00;;;;;;5114687;28;20190;-67
2023/09/03 01:02:19;;;;;;;3.27;1.00;;;25.10;58.60;;;;;;5098111;28;20198;-69
2023/09/03 01:04:47;;;;;;;1.47;1.10;;;25.00;59.40;;;;;;5114823;28;20584;-68
2023/09/03 01:07:16;;;;;;;2.17;0.90;;;24.80;60.20;;;;;;5114843;28;20706;-68
2023/09/03 01:09:44;;;;;;;2.37;1.17;;;25.00;66.20;;;;;;5114029;28;20182;-68
2023/09/03 01:12:16;;;;;;;3.43;1.40;;;24.80;59.30;;;;;;5114525;28;20190;-68
2023/09/03 01:14:57;;;;;;;1.90;1.20;;;24.80;60.50;;;;;;5114701;28;20673;-69
2023/09/03 01:17:32;;;;;;;3.37;0.90;;;25.30;59.40;;;;;;5114565;28;20190;-68
2023/09/03 01:20:09;;;;;;;5.33;1.20;;;25.30;66.40;;;;;;5114723;28;20214;-69
2023/09/03 01:23:01;;;;;;;1.80;1.07;;;25.60;64.50;;;;;;5093386;28;20230;-69
2023/09/03 01:25:49;;;;;;;2.17;0.90;;;25.60;57.40;;;;;;5076054;28;20183;-69
2023/09/03 01:28:27;;;;;;;2.30;0.97;;;25.60;56.90;;;;;;5095828;28;20210;-69
2023/09/03 01:31:01;;;;;;;2.17;1.13;;;25.40;59.30;;;;;;5113717;28;20178;-69
2023/09/03 01:33:31;;;;;;;5.23;1.33;;;25.70;56.00;;;;;;5112693;28;20190;-68
2023/09/03 01:35:59;;;;;;;1.80;1.00;;;24.10;55.90;;;;;;5114193;28;20175;-69
2023/09/03 01:38:27;;;;;;;1.57;1.17;;;22.00;75.00;;;;;;5113557;28;20676;-68
2023/09/03 01:40:59;;;;;;;5.07;1.30;;;21.20;81.90;;;;;;5113766;28;20182;-69
2023/09/03 01:43:29;;;;;;;2.83;1.10;;;20.90;87.10;;;;;;5100152;28;20249;-70
2023/09/03 01:46:01;;;;;;;3.43;1.30;;;20.70;91.30;;;;;;5113442;28;20178;-69
2023/09/03 01:48:43;;;;;;;4.90;1.40;;;21.10;93.70;;;;;;5113916;28;20222;-69
2023/09/03 01:51:35;;;;;;;2.73;1.00;;;22.60;95.30;;;;;;5113987;28;20184;-69
2023/09/03 01:54:09;;;;;;;3.20;1.30;;;22.40;90.40;;;;;;5112960;28;20702;-70
2023/09/03 01:56:46;;;;;;;1.93;1.00;;;21.40;91.40;;;;;;5114257;28;20177;-69
2023/09/03 01:59:27;;;;;;;3.57;1.33;;;20.90;93.90;;;;;;5113511;28;20186;-67
2023/09/03 02:05:17;;;;;;;3.13;1.27;;;20.20;98.30;;;;;;5115732;27;20180;-67
2023/09/03 02:07:44;;;;;;;4.80;1.87;;;21.50;99.90;;;;;;5116154;27;20217;-69
2023/09/03 02:10:12;;;;;;;4.73;1.60;;;22.90;92.60;;;;;;5113248;28;20189;-68
2023/09/03 02:12:39;;;;;;;4.27;1.73;;;23.30;84.00;;;;;;5095255;28;20558;-69
2023/09/03 02:15:08;;;;;;;3.53;1.20;;;23.40;86.00;;;;;;5094486;28;20187;-69
2023/09/03 02:17:35;;;;;;;5.13;1.40;;;24.30;85.20;;;;;;5113322;28;20186;-69
2023/09/03 02:20:03;;;;;;;2.17;1.17;;;24.90;76.40;;;;;;5113365;28;20185;-69
2023/09/03 02:22:30;;;;;;;4.20;1.20;;;25.20;74.40;;;;;;5112321;28;20234;-69
2023/09/03 02:24:58;;;;;;;3.57;1.30;;;25.50;63.50;;;;;;5112708;28;20273;-68
2023/09/03 02:27:25;;;;;;;2.00;1.20;;;24.60;60.40;;;;;;5112668;28;20222;-68
2023/09/03 02:29:52;;;;;;;3.97;1.60;;;23.50;66.70;;;;;;5112686;28;20186;-68
2023/09/03 02:32:20;;;;;;;1.87;1.60;;;22.60;71.90;;;;;;5112982;28;20210;-68
2023/09/03 02:34:47;;;;;;;2.70;1.67;;;22.10;74.40;;;;;;5112572;28;20179;-67
2023/09/03 02:37:14;;;;;;;3.13;1.50;;;21.50;81.50;;;;;;5093466;28;20308;-68
2023/09/03 02:39:41;;;;;;;2.60;1.33;;;21.40;86.40;;;;;;5112496;28;20379;-67
2023/09/03 02:42:09;;;;;;;5.70;1.80;;;21.20;88.00;;;;;;5112732;28;20189;-68
2023/09/03 02:44:36;;;;;;;3.93;1.17;;;20.90;88.80;;;;;;5112013;28;20235;-68
2023/09/03 02:47:28;;;;;;;1.97;1.30;;;20.70;89.80;;;;;;5112874;28;20192;-67
2023/09/03 02:49:55;;;;;;;4.80;1.47;;;20.60;93.50;;;;;;5112738;28;20554;-68
2023/09/03 02:52:22;;;;;;;4.23;1.27;;;20.90;92.10;;;;;;5112478;28;20273;-67
2023/09/03 02:54:49;;;;;;;4.60;1.30;;;21.60;91.30;;;;;;5112333;28;20208;-68
2023/09/03 02:57:17;;;;;;;5.50;1.23;;;22.60;89.40;;;;;;5095743;28;20240;-68
2023/09/03 02:59:44;;;;;;;3.70;1.23;;;22.70;80.20;;;;;;5111972;28;20185;-69
2023/09/03 03:02:12;;;;;;;2.53;1.40;;;22.80;67.20;;;;;;5112388;28;20223;-69
2023/09/03 03:04:39;;;;;;;2.00;1.17;;;23.00;72.20;;;;;;5112782;28;20527;-68
2023/09/03 03:07:06;;;;;;;1.60;1.17;;;23.20;66.20;;;;;;5112343;28;20174;-69
2023/09/03 03:09:34;;;;;;;4.10;1.50;;;23.70;63.00;;;;;;5112597;28;20178;-68
2023/09/03 03:12:04;;;;;;;2.70;1.17;;;24.20;60.00;;;;;;5112744;28;20163;-69
2023/09/03 03:14:31;;;;;;;2.83;0.90;;;24.50;55.90;;;;;;5109626;27;21030;-69
2023/09/03 03:17:01;;;;;;;3.90;1.20;;;25.00;56.10;;;;;;5111462;27;20187;-69
2023/09/03 03:19:28;;;;;;;3.67;1.70;;;25.00;52.90;;;;;;5111988;28;20183;-68
2023/09/03 03:21:56;;;;;;;1.90;1.10;;;24.90;51.70;;;;;;5111663;28;20742;-69
2023/09/03 03:24:23;;;;;;;3.40;1.30;;;24.80;51.40;;;;;;5112385;28;20182;-69
2023/09/03 03:26:56;;;;;;;2.63;0.90;;;24.80;55.20;;;;;;5111407;28;20213;-69
2023/09/03 03:29:24;;;;;;;2.50;1.27;;;24.70;51.70;;;;;;5093455;28;20255;-68
2023/09/03 03:31:54;;;;;;;1.70;1.00;;;24.50;52.10;;;;;;5112205;28;20170;-68
2023/09/03 03:34:21;;;;;;;6.17;0.97;;;24.60;50.10;;;;;;5112233;28;20193;-69
2023/09/03 03:36:49;;;;;;;3.27;1.37;;;24.50;53.60;;;;;;5111468;28;20198;-69
2023/09/03 03:39:16;;;;;;;2.97;1.27;;;24.90;50.20;;;;;;5111670;28;20182;-68
2023/09/03 03:41:44;;;;;;;2.77;1.20;;;24.60;50.50;;;;;;5111386;28;20183;-68
2023/09/03 03:44:11;;;;;;;2.60;1.13;;;23.90;52.50;;;;;;5111503;28;20178;-69
2023/09/03 03:46:39;;;;;;;4.30;1.37;;;23.70;51.60;;;;;;5111964;28;20194;-69
2023/09/03 03:49:06;;;;;;;2.27;1.10;;;23.40;54.60;;;;;;5111916;28;20221;-69
2023/09/03 03:51:36;;;;;;;2.73;1.10;;;23.90;51.80;;;;;;5111763;28;20178;-69
2023/09/03 03:54:05;;;;;;;2.60;1.10;;;24.40;53.80;;;;;;5112224;28;20257;-69
2023/09/03 03:56:36;;;;;;;2.60;1.00;;;24.50;49.30;;;;;;5092306;28;20186;-69
2023/09/03 03:59:03;;;;;;;2.13;1.10;;;23.90;48.80;;;;;;5113272;28;20175;-68
2023/09/03 04:01:31;;;;;;;3.20;1.00;;;23.80;51.50;;;;;;5113099;28;20178;-69
2023/09/03 04:04:01;;;;;;;4.10;1.43;;;23.90;51.80;;;;;;5091731;28;20178;-69
2023/09/03 04:06:31;;;;;;;5.97;1.60;;;24.10;53.50;;;;;;5111113;28;20674;-69
2023/09/03 04:09:02;;;;;;;1.83;1.10;;;24.00;50.90;;;;;;5111387;28;20218;-69
2023/09/03 04:11:30;;;;;;;2.50;1.27;;;24.10;49.70;;;;;;5111080;28;20194;-71
2023/09/03 04:13:58;;;;;;;2.20;1.03;;;24.40;53.00;;;;;;5111316;28;20531;-68
2023/09/03 04:16:25;;;;;;;4.20;1.50;;;24.50;47.50;;;;;;5111745;28;20258;-70
2023/09/03 04:18:53;;;;;;;3.93;1.30;;;24.50;49.90;;;;;;5111380;28;20278;-70
2023/09/03 04:21:20;;;;;;;2.43;1.20;;;24.50;51.00;;;;;;5110868;28;20193;-71
2023/09/03 04:23:48;;;;;;;2.93;1.43;;;24.10;58.00;;;;;;5111619;28;20201;-70
2023/09/03 04:26:18;;;;;;;2.83;1.60;;;23.70;60.70;;;;;;5111668;28;20175;-71
2023/09/03 04:28:45;;;;;;;5.67;1.63;;;23.50;66.90;;;;;;5111655;28;20355;-71
2023/09/03 04:31:13;;;;;;;4.87;1.70;;;23.40;79.00;;;;;;5111658;28;20179;-71
2023/09/03 04:33:40;;;;;;;2.90;1.30;;;23.60;77.90;;;;;;5111369;28;20259;-69
2023/09/03 04:36:08;;;;;;;4.07;1.60;;;23.60;73.50;;;;;;5111209;28;20188;-69
2023/09/03 04:38:36;;;;;;;3.20;1.30;;;23.40;76.50;;;;;;5111489;28;20179;-69
2023/09/03 04:41:09;;;;;;;3.23;1.30;;;23.50;83.80;;;;;;5111143;28;20182;-69
2023/09/03 04:43:42;;;;;;;4.90;1.43;;;23.50;96.20;;;;;;5111787;28;20270;-68
2023/09/03 04:46:09;;;;;;;3.57;1.57;;;23.10;99.50;;;;;;5112568;28;20167;-69
2023/09/03 04:48:36;;;;;;;4.47;1.73;;;22.60;99.90;;;;;;5112772;28;20234;-68
2023/09/03 04:51:05;;;;;;;5.13;1.77;;;22.70;99.90;;;;;;5112870;28;20166;-68
2023/09/03 04:53:33;;;;;;;3.33;1.30;;;22.40;99.90;;;;;;5094685;28;20171;-68
2023/09/03 04:56:02;;;;;;;4.50;1.40;;;21.90;99.90;;;;;;5112985;28;20175;-69
2023/09/03 04:58:29;;;;;;;3.23;1.50;;;22.00;99.90;;;;;;5123337;28;20221;-68
2023/09/03 05:00:56;;;;;;;4.10;1.30;;;22.10;99.90;;;;;;5121003;28;20239;-67
2023/09/03 05:03:24;;;;;;;3.73;1.43;;;22.00;99.90;;;;;;5121310;28;20181;-68
2023/09/03 05:05:51;;;;;;;3.47;1.43;;;21.80;99.90;;;;;;5123198;28;20174;-68
2023/09/03 05:08:18;;;;;;;3.23;1.40;;;21.40;99.90;;;;;;5131808;27;20267;-68
2023/09/03 05:10:46;;;;;;;5.60;1.60;;;21.40;99.90;;;;;;5137165;27;20166;-68
2023/09/03 05:13:13;;;;;;;4.20;1.50;;;21.40;99.90;;;;;;5137033;27;20166;-68
2023/09/03 05:15:41;;;;;;;4.07;1.40;;;21.40;99.90;;;;;;5136831;27;20184;-68
2023/09/03 05:18:09;;;;;;;4.03;1.40;;;21.50;99.90;;;;;;5136737;27;20252;-69
2023/09/03 05:20:39;;;;;;;5.63;1.60;;;21.40;99.90;;;;;;5136610;27;20166;-69
2023/09/03 05:23:06;;;;;;;3.17;1.10;;;21.50;99.90;;;;;;5136712;27;20225;-68
2023/09/03 05:25:33;;;;;;;2.47;1.40;;;21.10;99.90;;;;;;5136601;27;20173;-67
2023/09/03 05:28:00;;;;;;;2.57;1.20;;;21.00;99.90;;;;;;5136713;27;20713;-68
2023/09/03 05:30:28;;;;;;;7.90;1.40;;;20.90;99.90;;;;;;5136452;27;20201;-69
2023/09/03 05:32:55;;;;;;;1.13;0.97;;;20.80;99.90;;;;;;5136534;27;20166;-67
2023/09/03 05:35:22;;;;;;;4.03;1.10;;;20.80;99.90;;;;;;5136587;27;20630;-68
2023/09/03 05:37:49;;;;;;;5.80;1.70;;;20.80;99.90;;;;;;5136274;27;20186;-68
2023/09/03 05:40:17;;;;;;;5.27;1.43;;;20.80;99.90;;;;;;5136456;27;20529;-69
2023/09/03 05:42:44;;;;;;;2.20;1.20;;;21.00;99.90;;;;;;5136240;27;20578;-68
2023/09/03 05:45:11;;;;;;;4.17;1.00;;;21.10;99.90;;;;;;5136180;27;20569;-68
2023/09/03 05:47:39;;;;;;;5.87;1.43;;;21.10;99.90;;;;;;5136228;27;20202;-68
2023/09/03 05:50:06;;;;;;;3.57;1.37;;;21.20;99.90;;;;;;5136097;27;20583;-68
2023/09/03 05:52:34;;;;;;;3.90;1.33;;;20.90;99.90;;;;;;5136157;27;20170;-69
2023/09/03 05:55:01;;;;;;;3.97;1.43;;;20.70;99.90;;;;;;5135888;27;20201;-70
2023/09/03 05:57:28;;;;;;;5.50;1.27;;;20.40;99.90;;;;;;5135843;27;20170;-67
2023/09/03 05:59:56;;;;;;;5.20;1.13;;;20.40;99.90;;;;;;5135750;27;20537;-68
2023/09/03 06:02:23;;;;;;;2.70;1.30;;;20.30;99.90;;;;;;5135813;27;20204;-68
2023/09/03 06:04:51;;;;;;;6.23;1.67;;;20.40;99.90;;;;;;5135854;27;20662;-68
2023/09/03 06:07:18;;;;;;;3.27;1.10;;;20.30;99.90;;;;;;5117110;27;20639;-67
2023/09/03 06:09:46;;;;;;;2.83;1.20;;;20.10;99.90;;;;;;5135511;27;20231;-67
2023/09/03 06:12:14;;;;;;;5.33;1.40;;;20.00;99.90;;;;;;5117078;27;20183;-69
2023/09/03 06:14:41;;;;;;;2.67;1.37;;;19.90;99.90;;;;;;5135589;27;20184;-69
2023/09/03 06:17:08;;;;;;;6.17;1.63;;;19.90;99.90;;;;;;5135594;27;20176;-68
2023/09/03 06:19:36;;;;;;;7.37;2.37;;;19.90;99.90;;;;;;5124418;27;20317;-70
2023/09/03 06:22:04;;;;;;;5.77;1.90;;;19.70;99.90;;;;;;5114607;27;20223;-72
2023/09/03 06:24:31;;;;;;;3.70;1.50;;;19.50;99.90;;;;;;5113477;28;20171;-72
2023/09/03 06:26:59;;;;;;;4.13;1.30;;;19.50;99.90;;;;;;5114771;28;20179;-69
2023/09/03 06:29:27;;;;;;;4.23;1.27;;;19.40;99.90;;;;;;5114605;28;20613;-70
2023/09/03 06:31:54;;;;;;;6.00;1.17;;;19.30;99.90;;;;;;5114860;28;20171;-71
2023/09/03 06:34:22;;;;;;;6.97;1.37;;;19.20;99.90;;;;;;5114737;28;20174;-71
2023/09/03 06:36:50;;;;;;;1.50;1.00;;;19.10;99.90;;;;;;5114367;28;20318;-72
2023/09/03 06:39:18;;;;;;;4.33;1.10;;;19.00;99.90;;;;;;5096354;28;20660;-72
2023/09/03 06:41:45;;;;;;;13.70;8.37;;;19.00;99.90;;;;;;5114743;28;20192;-72
2023/09/03 06:44:13;;;;;;;8.70;2.30;;;19.00;99.90;;;;;;5114311;28;20173;-71
2023/09/03 06:46:40;;;;;;;4.57;1.30;;;19.10;99.90;;;;;;5114553;28;20210;-70
2023/09/03 06:49:07;;;;;;;4.17;1.83;;;19.10;99.90;;;;;;5114295;28;20297;-71
2023/09/03 06:51:35;;;;;;;8.57;3.80;;;19.00;99.90;;;;;;5114638;28;20571;-71
2023/09/03 06:54:02;;;;;;;11.07;1.20;;;18.90;99.90;;;;;;5114907;28;20174;-73
2023/09/03 06:56:29;;;;;;;2.40;0.90;;;18.70;99.90;;;;;;5114607;28;20238;-71
2023/09/03 06:58:57;;;;;;;3.27;1.20;;;18.50;99.90;;;;;;5114293;28;20171;-68
2023/09/03 07:01:24;;;;;;;3.80;1.67;;;18.30;99.90;;;;;;5114245;28;20583;-73
2023/09/03 07:03:52;;;;;;;6.07;2.60;;;18.30;99.90;;;;;;5114144;28;20176;-72
2023/09/03 07:06:19;;;;;;;4.73;2.10;;;18.20;99.90;;;;;;5114057;28;20187;-72
2023/09/03 07:08:46;;;;;;;5.33;1.13;;;18.00;99.90;;;;;;5113914;28;20208;-71
2023/09/03 07:11:13;;;;;;;5.63;1.43;;;17.90;99.90;;;;;;5113843;28;20622;-72
2023/09/03 07:13:41;;;;;;;8.30;1.40;;;17.70;99.90;;;;;;5113833;28;20183;-70
2023/09/03 07:16:08;;;;;;;7.37;1.40;;;17.60;99.90;;;;;;5113945;28;20508;-72
2023/09/03 07:18:35;;;;;;;3.63;1.13;;;17.50;99.90;;;;;;5113627;28;20182;-72
2023/09/03 07:21:07;;;;;;;8.30;1.27;;;17.40;99.90;;;;;;5113570;28;20168;-70
2023/09/03 07:23:34;;;;;;;4.77;1.20;;;17.30;99.90;;;;;;5113559;28;20328;-72
2023/09/03 07:26:07;;;;;;;2.13;1.23;;;17.20;99.90;;;;;;5113799;28;20182;-73
2023/09/03 07:28:34;;;;;;;3.97;1.30;;;17.20;99.90;;;;;;5113687;28;20297;-72
2023/09/03 07:31:04;;;;;;;3.10;1.00;;;17.10;99.90;;;;;;5112704;28;20175;-72
2023/09/03 07:33:36;;;;;;;4.33;1.10;;;17.00;99.90;;;;;;5113932;28;20167;-70
2023/09/03 07:36:10;;;;;;;3.53;1.00;;;16.90;99.90;;;;;;5113523;28;20191;-72
2023/09/03 07:38:41;;;;;;;4.83;1.10;;;16.80;99.90;;;;;;5113512;28;20184;-71
2023/09/03 07:41:08;;;;;;;6.10;1.43;;;16.70;99.90;;;;;;5113486;28;20175;-72
2023/09/03 07:43:36;;;;;;;4.37;1.43;;;16.70;99.90;;;;;;5113268;28;20227;-71
2023/09/03 07:46:05;;;;;;;8.10;1.43;;;16.70;99.90;;;;;;5113505;28;20178;-73
2023/09/03 07:48:32;;;;;;;6.17;1.30;;;16.50;99.90;;;;;;5113394;28;20234;-72
2023/09/03 07:50:59;;;;;;;3.63;1.10;;;16.40;99.90;;;;;;5113351;28;20170;-72
2023/09/03 07:53:28;;;;;;;8.93;2.33;;;16.30;99.90;;;;;;5113442;28;20573;-72
2023/09/03 07:55:55;;;;;;;4.03;1.20;;;16.20;99.90;;;;;;5113421;28;20227;-69
2023/09/03 07:58:22;;;;;;;4.87;1.67;;;16.20;99.90;;;;;;5113608;28;20181;-69
2023/09/03 08:00:52;;;;;;;5.07;1.90;;;16.20;99.90;;;;;;5113347;28;20613;-69
2023/09/03 08:03:19;;;;;;;3.80;1.33;;;16.10;99.90;;;;;;5095056;28;20541;-70
2023/09/03 08:05:47;;;;;;;8.23;1.83;;;16.00;99.90;;;;;;5113067;28;20182;-69
2023/09/03 08:08:14;;;;;;;2.33;1.30;;;16.00;99.90;;;;;;5113480;28;20202;-69
2023/09/03 08:10:42;;;;;;;5.77;1.50;;;16.00;99.90;;;;;;5113500;28;20620;-69
2023/09/03 08:13:09;;;;;;;4.60;1.43;;;15.90;99.90;;;;;;5113242;28;20635;-69
2023/09/03 08:15:36;;;;;;;4.20;1.43;;;15.80;99.90;;;;;;5095115;28;20178;-69
2023/09/03 08:18:03;;;;;;;7.73;1.73;;;15.80;99.90;;;;;;5113159;28;20250;-69
2023/09/03 08:20:31;;;;;;;3.60;1.60;;;15.90;99.90;;;;;;5113284;28;20182;-69
2023/09/03 08:22:58;;;;;;;12.20;2.73;;;15.70;99.90;;;;;;5112859;28;20613;-71
2023/09/03 08:25:26;;;;;;;2.90;1.90;;;15.70;99.90;;;;;;5113094;28;20577;-70
2023/09/03 08:27:53;;;;;;;5.97;4.23;;;15.60;99.90;;;;;;5112971;28;20209;-70
2023/09/03 08:30:21;;;;;;;9.00;3.20;;;15.50;99.90;;;;;;5113292;28;20183;-69
2023/09/03 08:32:48;;;;;;;5.23;1.93;;;15.50;99.90;;;;;;5113073;28;20186;-71
2023/09/03 08:35:15;;;;;;;2.97;1.57;;;15.50;99.90;;;;;;5113165;28;20639;-69
2023/09/03 08:37:42;;;;;;;5.83;2.20;;;15.40;99.90;;;;;;5113092;28;20236;-69
2023/09/03 08:40:11;;;;;;;3.90;1.40;;;15.40;99.90;;;;;;5113110;28;20226;-69
2023/09/03 08:42:42;;;;;;;3.30;1.60;;;15.40;99.90;;;;;;5115780;28;20631;-71
2023/09/03 08:45:16;;;;;;;6.23;1.80;;;15.30;99.90;;;;;;5117337;28;20598;-71
2023/09/03 08:47:44;;;;;;;4.83;2.27;;;15.30;99.90;;;;;;5099048;28;20206;-72
2023/09/03 08:50:13;;;;;;;7.63;1.67;;;15.30;99.90;;;;;;5117355;28;20293;-70
2023/09/03 08:52:42;;;;;;;9.33;1.57;;;15.30;99.90;;;;;;5099158;28;20183;-70
2023/09/03 08:55:13;;;;;;;4.60;1.60;;;15.30;99.90;;;;;;5116788;28;20277;-70
2023/09/03 08:57:41;;;;;;;8.63;2.33;;;15.20;99.90;;;;;;5098427;28;20650;-71
2023/09/03 09:00:12;;;;;;;2.77;1.70;;;15.10;99.90;;;;;;5116931;28;20529;-70
2023/09/03 09:02:42;;;;;;;6.67;2.07;;;15.10;99.90;;;;;;5116947;28;20221;-69
2023/09/03 09:05:11;;;;;;;6.37;2.00;;;15.00;99.90;;;;;;5098271;28;20184;-69
2023/09/03 09:07:39;;;;;;;6.37;2.00;;;15.00;99.90;;;;;;5116602;28;20290;-69
2023/09/03 09:10:11;;;;;;;6.67;1.70;;;14.90;99.90;;;;;;5098275;28;20710;-70
2023/09/03 09:12:38;;;;;;;5.60;1.60;;;14.90;99.90;;;;;;5116673;28;20180;-69
2023/09/03 09:15:06;;;;;;;5.90;1.77;;;14.80;99.90;;;;;;5098103;28;20182;-69
2023/09/03 09:17:38;;;;;;;6.50;1.80;;;14.70;99.90;;;;;;5116601;28;20174;-69
2023/09/03 09:20:06;;;;;;;3.07;1.60;;;14.60;99.90;;;;;;5116391;28;20181;-70
2023/09/03 09:22:48;;;;;;;6.87;1.63;;;14.60;99.90;;;;;;5116143;28;20250;-69
2023/09/03 09:25:21;;;;;;;3.33;1.57;;;14.50;99.90;;;;;;5098007;28;20178;-70
2023/09/03 09:27:49;;;;;;;4.60;1.40;;;14.40;99.90;;;;;;5097948;28;20218;-69
2023/09/03 09:30:27;;;;;;;5.13;1.93;;;14.30;99.90;;;;;;5116491;28;20173;-73
2023/09/03 09:33:08;;;;;;;3.63;1.87;;;14.20;99.90;;;;;;5116163;28;20637;-70
2023/09/03 09:35:36;;;;;;;4.23;1.80;;;14.20;99.90;;;;;;5116172;28;20175;-71
2023/09/03 09:38:10;;;;;;;4.90;2.00;;;14.10;99.90;;;;;;5116141;28;20186;-69
2023/09/03 09:40:37;;;;;;;4.10;1.93;;;14.00;99.90;;;;;;5116391;28;20168;-70
2023/09/03 09:43:08;;;;;;;6.23;1.80;;;14.00;99.90;;;;;;5115740;28;20183;-70
2023/09/03 09:45:47;;;;;;;6.20;2.27;;;13.90;99.90;;;;;;5115999;28;20202;-70
2023/09/03 09:48:15;;;;;;;2.77;1.70;;;13.90;99.90;;;;;;5116362;28;20247;-69
2023/09/03 09:50:44;;;;;;;7.53;2.60;;;13.90;99.90;;;;;;5116122;28;20512;-71
2023/09/03 09:53:28;;;;;;;5.27;1.80;;;13.80;99.90;;;;;;5114602;28;20182;-73
2023/09/03 09:56:18;;;;;;;6.67;2.30;;;13.70;99.90;;;;;;5097474;28;20178;-70
2023/09/03 09:58:49;;;;;;;5.50;2.10;;;13.70;99.90;;;;;;5115500;28;20532;-71
2023/09/03 10:01:16;;;;;;;4.23;2.30;;;13.60;99.90;;;;;;5115719;28;20685;-69
2023/09/03 10:03:50;;;;;;;6.60;2.53;;;13.50;99.90;;;;;;5115697;28;20528;-70
2023/09/03 10:06:20;;;;;;;5.87;3.00;;;13.50;99.90;;;;;;5115727;28;20220;-69
2023/09/03 10:08:49;;;;;;;6.17;2.40;;;13.50;99.90;;;;;;5115288;28;20216;-69
2023/09/03 10:11:17;;;;;;;8.50;2.40;;;13.50;99.90;;;;;;5115677;28;20186;-73
2023/09/03 10:13:45;;;;;;;5.23;2.30;;;13.40;99.90;;;;;;5115817;28;20178;-70
2023/09/03 10:16:13;;;;;;;7.30;2.70;;;13.30;99.90;;;;;;5097170;28;20190;-72
2023/09/03 10:18:45;;;;;;;3.47;2.20;;;13.30;99.90;;;;;;5115624;28;20181;-72
2023/09/03 10:21:19;;;;;;;6.33;2.17;;;13.20;99.90;;;;;;5115593;28;20174;-70
2023/09/03 10:23:50;;;;;;;5.33;2.43;;;13.10;99.90;;;;;;5096995;28;20514;-71
2023/09/03 10:26:34;;;;;;;7.27;2.83;;;13.10;99.90;;;;;;5115127;28;20575;-69
2023/09/03 10:29:06;;;;;;;6.20;2.73;;;13.00;99.90;;;;;;5115181;28;20297;-72
2023/09/03 10:31:35;;;;;;;5.23;2.57;;;13.00;99.90;;;;;;5115232;28;20180;-71
2023/09/03 10:34:08;;;;;;;4.43;2.07;;;13.00;99.90;;;;;;5115077;28;20183;-69
2023/09/03 10:36:35;;;;;;;4.80;2.70;;;12.90;99.90;;;;;;5079904;28;20186;-73
2023/09/03 10:39:29;;;;;;;4.83;2.73;;;12.80;99.90;;;;;;5096563;28;20177;-70
2023/09/03 10:42:24;;;;;;;6.87;2.97;;;12.80;99.90;;;;;;5093323;28;20255;-70
2023/09/03 10:44:56;;;;;;;7.23;2.90;;;12.70;99.90;;;;;;5114405;28;20184;-71
2023/09/03 10:47:24;;;;;;;4.90;2.80;;;12.70;99.90;;;;;;5115024;28;20282;-70
2023/09/03 10:49:54;;;;;;;7.07;2.90;;;12.70;99.90;;;;;;5114750;28;20182;-70
2023/09/03 10:55:22;;;;;;;7.33;3.40;;;12.60;99.90;;;;;;5114409;28;20189;-69
2023/09/03 10:58:10;;;;;;;5.07;3.03;;;12.50;99.90;;;;;;5114611;28;20646;-70
2023/09/03 11:00:38;;;;;;;8.13;3.27;;;12.50;99.90;;;;;;5100253;28;20197;-70
2023/09/03 11:03:21;;;;;;;8.87;3.73;;;12.50;99.90;;;;;;5095984;28;20196;-69
2023/09/03 11:06:17;;;;;;;6.97;3.90;;;12.50;99.90;;;;;;5113713;28;20189;-71
2023/09/03 11:08:46;;;;;;;10.63;5.30;;;12.40;99.90;;;;;;5114375;28;20206;-70
2023/09/03 11:11:20;;;;;;;9.63;5.27;;;12.40;99.90;;;;;;5096125;28;20272;-68
2023/09/03 11:13:52;;;;;;;9.33;5.20;;;12.40;99.90;;;;;;5114635;28;20619;-69
2023/09/03 11:16:30;;;;;;;13.40;6.83;;;12.40;99.90;;;;;;5113995;28;20180;-70
2023/09/03 11:18:59;;;;;;;13.67;8.07;;;12.30;99.90;;;;;;5114056;28;20167;-70
2023/09/03 11:21:27;;;;;;;12.83;6.77;;;12.20;99.90;;;;;;5113692;28;20174;-69
2023/09/03 11:24:29;;;;;;;12.10;7.93;;;12.20;99.90;;;;;;5116879;28;20194;-70
2023/09/03 11:27:05;;;;;;;13.27;8.70;;;12.10;99.90;;;;;;5119942;28;20190;-71
2023/09/03 11:29:33;;;;;;;16.77;8.77;;;12.10;99.90;;;;;;5116799;28;20213;-71
2023/09/03 11:32:00;;;;;;;13.37;8.70;;;12.10;99.90;;;;;;5114070;28;20172;-71
2023/09/03 11:34:29;;;;;;;15.23;8.67;;;12.00;99.90;;;;;;5113850;28;20181;-71
2023/09/03 11:36:57;;;;;;;13.50;8.00;;;12.00;99.90;;;;;;5113879;28;20262;-70
2023/09/03 11:39:24;;;;;;;17.43;8.80;;;12.00;99.90;;;;;;5114307;28;20179;-70
2023/09/03 11:41:52;;;;;;;19.53;9.67;;;12.00;99.90;;;;;;5113782;28;20197;-72
2023/09/03 11:44:24;;;;;;;14.00;8.87;;;11.90;99.90;;;;;;5113463;28;20255;-72
2023/09/03 11:46:58;;;;;;;17.17;8.93;;;11.90;99.90;;;;;;5113856;28;20168;-70
2023/09/03 11:49:26;;;;;;;15.30;8.77;;;11.90;99.90;;;;;;5113656;28;20208;-71
2023/09/03 11:51:54;;;;;;;14.90;8.63;;;11.90;99.90;;;;;;5113886;28;20173;-70
2023/09/03 11:54:26;;;;;;;13.50;7.67;;;11.80;99.90;;;;;;5113812;28;20188;-73
2023/09/03 11:56:58;;;;;;;15.43;8.10;;;11.80;99.90;;;;;;5113527;28;20252;-73
2023/09/03 11:59:26;;;;;;;14.67;8.83;;;11.70;99.90;;;;;;5113506;28;20169;-72
2023/09/03 12:01:54;;;;;;;14.67;8.20;;;11.70;99.90;;;;;;5113245;28;20653;-71
2023/09/03 12:04:22;;;;;;;12.90;7.90;;;11.60;99.90;;;;;;5113247;28;20182;-73
2023/09/03 12:06:49;;;;;;;12.70;8.17;;;11.60;99.90;;;;;;5113135;28;20183;-72
2023/09/03 12:09:26;;;;;;;10.87;7.47;;;11.60;99.90;;;;;;5113027;28;20692;-72
2023/09/03 12:11:53;;;;;;;15.97;7.80;;;11.50;99.90;;;;;;5113278;28;20168;-71
2023/09/03 12:14:31;;;;;;;10.80;7.70;;;11.40;99.90;;;;;;5113184;28;20183;-72
2023/09/03 12:16:58;;;;;;;10.03;7.17;;;11.40;99.90;;;;;;5096587;28;20242;-70
2023/09/03 12:19:41;;;;;;;11.57;7.03;;;11.40;99.90;;;;;;5117303;28;20170;-71
2023/09/03 12:22:09;;;;;;;12.40;7.40;;;11.30;99.90;;;;;;5117014;28;20235;-73
2023/09/03 12:24:36;;;;;;;13.07;6.97;;;11.40;99.90;;;;;;5116831;28;20182;-73
2023/09/03 12:27:05;;;;;;;11.37;7.30;;;11.40;99.90;;;;;;5117082;28;20234;-72
2023/09/03 12:29:40;;;;;;;11.90;6.43;;;11.40;99.90;;;;;;5116929;28;20211;-70
2023/09/03 12:32:15;;;;;;;11.07;6.97;;;11.30;99.90;;;;;;5117063;28;20504;-71
2023/09/03 12:34:49;;;;;;;12.10;7.23;;;11.30;99.90;;;;;;5116912;28;20267;-70
2023/09/03 12:37:16;;;;;;;10.53;6.87;;;11.30;99.90;;;;;;5116835;28;20635;-72
2023/09/03 12:39:43;;;;;;;12.03;7.10;;;11.20;99.90;;;;;;5098423;28;20236;-72
2023/09/03 12:42:11;;;;;;;13.40;6.67;;;11.10;99.90;;;;;;5116821;28;20186;-70
2023/09/03 12:44:45;;;;;;;15.17;6.67;;;11.10;99.90;;;;;;5116670;28;20167;-70
2023/09/03 12:47:12;;;;;;;11.43;5.60;;;11.10;99.90;;;;;;5117346;27;20173;-67
2023/09/03 12:49:45;;;;;;;12.30;6.10;;;11.00;99.90;;;;;;5115661;27;20196;-67
2023/09/03 12:52:12;;;;;;;9.57;6.47;;;11.00;99.90;;;;;;5115129;28;20184;-66
2023/09/03 12:54:40;;;;;;;10.00;5.63;;;11.00;99.90;;;;;;5112103;28;20190;-68
2023/09/03 12:57:07;;;;;;;11.63;5.97;;;10.90;99.90;;;;;;5115073;28;20184;-68
2023/09/03 12:59:34;;;;;;;11.37;5.63;;;11.00;99.90;;;;;;5115471;28;20261;-68
2023/09/03 13:02:02;;;;;;;12.00;6.10;;;11.00;99.90;;;;;;5115596;28;20181;-67
2023/09/03 13:04:29;;;;;;;9.87;5.57;;;10.90;99.90;;;;;;5115947;28;20180;-67